aviador You're here:

PABT Decoded Metar

BETTLES in AK, USA
Report Time2018-02-17 22:53:00
UTC Time2018-02-17 23:42:45
Flight Rules mvfr MVFR
Wind340° at 05 kt
W.Decomp.*RWY 01: 3.2 kt HW 3.8 kt LCW
W.Rank340° ranks 4
Current wind is above 340° avg. (4.3)
Visibility9999 m
Phenomena:N/A
Clouds:Scattered 018 Hf
Overcast 022 Hf
Expected CloudBase > 800 ft AGL from Temp-Dew spread
Ceiling2,200 ft
Temp-16°C (ISA -30)
Dew Point-18°C (85% RH)
AAT-21.3°C
QNH1039 hPa
Density Alt-3,993 ft
Elevation640 ft
Report Wrong Elevation
Raw Report
PABT 172253Z 34005KT 10SM SCT018 OVC022 M16/M18 A3069 RMK AO2
SLP422 T11561183=

Extra information for PABT:More info

Metar Taf Metar & Taf Last 4 Metars F.Rules Stats Wind Profile Meteogram Temp Stats Airport Information Weather charts Add Link Nearby VenuesMetar ALERT Operation Metar Decoded Social comments

AIRNAV info for PABT